Time;durP1;ratioP1;P1;durP2;ratioP2;P2;SDS_P1;SDS_P2;PMS_P1;PMS_P2;Temp;Humidity;BMP_temperature;BMP_pressure;BME280_temperature;BME280_humidity;BME280_pressure;Samples;Min_cycle;Max_cycle;Signal;HPM_P1;HPM_P2
2021/04/10 00:01:28;;;;;;;1.13;0.93;;;7.20;69.70;;;;;;5032809;28;20030;-68
2021/04/10 00:03:54;;;;;;;1.23;1.13;;;7.10;69.80;;;;;;5032744;28;20114;-68
2021/04/10 00:06:19;;;;;;;0.70;0.70;;;7.10;69.80;;;;;;5032759;28;20430;-68
2021/04/10 00:08:45;;;;;;;1.27;0.90;;;7.10;70.00;;;;;;5032439;28;20033;-69
2021/04/10 00:11:10;;;;;;;1.60;1.00;;;7.00;70.10;;;;;;5032542;28;20022;-69
2021/04/10 00:13:36;;;;;;;0.68;0.68;;;7.00;70.30;;;;;;5034486;28;20026;-69
2021/04/10 00:16:02;;;;;;;1.58;1.10;;;6.90;70.40;;;;;;5036490;28;20107;-69
2021/04/10 00:18:27;;;;;;;1.02;0.88;;;6.80;70.50;;;;;;5036346;28;20484;-69
2021/04/10 00:20:53;;;;;;;1.25;1.15;;;6.80;70.60;;;;;;5036287;28;20048;-69
2021/04/10 00:23:19;;;;;;;2.28;1.10;;;6.80;70.80;;;;;;5035998;28;20089;-69
2021/04/10 00:25:44;;;;;;;3.47;0.73;;;6.70;70.80;;;;;;5036242;28;20025;-69
2021/04/10 00:28:10;;;;;;;1.10;1.00;;;6.70;70.90;;;;;;5036282;28;20084;-69
2021/04/10 00:30:35;;;;;;;2.05;1.17;;;6.70;71.00;;;;;;5034797;28;20104;-68
2021/04/10 00:33:01;;;;;;;1.00;1.00;;;6.70;71.00;;;;;;5035939;28;20061;-69
2021/04/10 00:35:28;;;;;;;2.20;1.38;;;6.70;71.10;;;;;;5036154;28;20478;-69
2021/04/10 00:37:55;;;;;;;2.05;1.30;;;6.70;71.10;;;;;;5035491;28;20109;-69
2021/04/10 00:40:21;;;;;;;1.67;1.58;;;6.60;71.20;;;;;;5036028;28;20025;-69
2021/04/10 00:42:46;;;;;;;2.05;1.52;;;6.70;71.20;;;;;;5035950;28;20029;-69
2021/04/10 00:45:12;;;;;;;2.15;1.05;;;6.60;71.20;;;;;;5035827;28;20020;-68
2021/04/10 00:47:38;;;;;;;1.60;0.93;;;6.60;71.30;;;;;;5035775;28;20025;-69
2021/04/10 00:50:04;;;;;;;2.83;1.30;;;6.60;71.20;;;;;;5035729;28;20489;-68
2021/04/10 00:52:30;;;;;;;1.15;0.73;;;6.60;71.40;;;;;;5035085;28;20646;-68
2021/04/10 00:54:56;;;;;;;3.00;1.88;;;6.60;71.40;;;;;;5035647;28;20100;-69
2021/04/10 00:57:23;;;;;;;1.83;1.27;;;6.60;71.40;;;;;;5035543;28;20048;-69
2021/04/10 00:59:48;;;;;;;0.93;0.93;;;6.60;71.50;;;;;;5035691;28;20173;-69
2021/04/10 01:02:14;;;;;;;0.80;0.80;;;6.60;71.50;;;;;;5034267;28;20450;-69
2021/04/10 01:04:41;;;;;;;2.08;1.88;;;6.60;71.50;;;;;;5035531;28;20536;-69
2021/04/10 01:07:06;;;;;;;0.85;0.85;;;6.60;71.50;;;;;;5035115;28;20033;-68
2021/04/10 01:09:33;;;;;;;1.27;1.15;;;6.60;71.60;;;;;;5035354;28;20075;-68
2021/04/10 01:12:10;;;;;;;1.33;0.90;;;6.60;71.70;;;;;;5035129;28;20646;-69
2021/04/10 01:14:54;;;;;;;0.88;0.88;;;6.60;71.60;;;;;;5035334;28;20017;-68
2021/04/10 01:17:25;;;;;;;0.70;0.70;;;6.60;71.50;;;;;;5035391;28;20116;-68
2021/04/10 01:20:09;;;;;;;0.52;0.52;;;6.60;71.50;;;;;;5035300;28;20018;-69
2021/04/10 01:23:07;;;;;;;0.65;0.65;;;6.70;71.40;;;;;;5034724;28;20032;-69
2021/04/10 01:25:51;;;;;;;1.48;0.75;;;6.70;71.30;;;;;;5034673;28;20425;-69
2021/04/10 01:28:55;;;;;;;1.02;0.88;;;6.70;71.30;;;;;;5035129;28;20021;-69
2021/04/10 01:31:41;;;;;;;0.70;0.70;;;6.60;71.30;;;;;;5034836;28;20029;-69
2021/04/10 01:34:13;;;;;;;0.95;0.80;;;6.60;71.50;;;;;;5034999;28;20101;-69
2021/04/10 01:36:42;;;;;;;0.47;0.47;;;6.60;71.60;;;;;;5034585;28;20017;-69
2021/04/10 01:39:10;;;;;;;0.88;0.88;;;6.60;71.60;;;;;;5034923;28;20378;-69
2021/04/10 01:41:40;;;;;;;0.60;0.57;;;6.60;71.60;;;;;;5034754;28;20025;-69
2021/04/10 01:44:07;;;;;;;0.77;0.70;;;6.60;71.60;;;;;;5035059;28;20048;-69
2021/04/10 01:46:34;;;;;;;0.85;0.68;;;6.60;71.60;;;;;;5034731;28;20026;-69
2021/04/10 01:49:01;;;;;;;0.57;0.57;;;6.60;71.70;;;;;;5034707;28;20028;-69
2021/04/10 01:51:27;;;;;;;1.67;1.10;;;6.60;71.70;;;;;;5033926;28;20044;-69
2021/04/10 01:53:53;;;;;;;0.63;0.60;;;6.60;71.70;;;;;;5034878;28;20409;-68
2021/04/10 01:56:19;;;;;;;1.13;1.02;;;6.60;71.70;;;;;;5034544;28;20021;-68
2021/04/10 01:58:46;;;;;;;0.75;0.75;;;6.70;71.70;;;;;;5034528;28;20478;-68
2021/04/10 02:01:14;;;;;;;0.93;0.90;;;6.70;71.70;;;;;;5034384;28;20021;-69
2021/04/10 02:03:46;;;;;;;1.05;0.90;;;6.70;71.60;;;;;;5034515;28;20029;-68
2021/04/10 02:06:13;;;;;;;0.90;0.70;;;6.70;71.60;;;;;;5034119;28;20021;-68
2021/04/10 02:08:44;;;;;;;0.85;0.70;;;6.70;71.60;;;;;;5034280;28;20026;-68
2021/04/10 02:11:11;;;;;;;1.77;0.90;;;6.70;71.60;;;;;;5034312;28;20401;-68
2021/04/10 02:13:38;;;;;;;1.60;0.60;;;6.70;71.60;;;;;;5033950;28;20036;-68
2021/04/10 02:16:04;;;;;;;0.63;0.63;;;6.70;71.70;;;;;;5034367;28;20049;-69
2021/04/10 02:18:30;;;;;;;1.77;0.75;;;6.60;71.90;;;;;;5034252;28;20123;-69
2021/04/10 02:20:59;;;;;;;0.77;0.77;;;6.60;72.00;;;;;;5033809;28;20017;-69
2021/04/10 02:23:24;;;;;;;0.95;0.80;;;6.50;72.10;;;;;;5034092;28;20103;-69
2021/04/10 02:25:50;;;;;;;1.48;1.27;;;6.50;72.20;;;;;;5033972;28;20433;-69
2021/04/10 02:28:15;;;;;;;0.82;0.75;;;6.50;72.30;;;;;;5033982;28;20036;-69
2021/04/10 02:30:41;;;;;;;0.70;0.70;;;6.50;72.30;;;;;;5033869;28;20025;-69
2021/04/10 02:33:13;;;;;;;0.80;0.80;;;6.40;72.30;;;;;;5033992;28;20064;-69
2021/04/10 02:35:52;;;;;;;0.73;0.73;;;6.50;72.40;;;;;;5032541;28;20030;-69
2021/04/10 02:38:19;;;;;;;0.73;0.70;;;6.40;72.90;;;;;;5033866;28;20057;-69
2021/04/10 02:41:03;;;;;;;1.10;0.85;;;6.40;72.30;;;;;;5033665;28;20017;-69
2021/04/10 02:43:32;;;;;;;1.05;0.93;;;6.40;72.30;;;;;;5033803;28;20497;-69
2021/04/10 02:46:00;;;;;;;1.02;0.90;;;6.40;72.40;;;;;;5033657;28;20021;-69
2021/04/10 02:48:46;;;;;;;0.80;0.80;;;6.40;72.50;;;;;;5033396;28;20071;-69
2021/04/10 02:51:13;;;;;;;2.55;0.60;;;6.40;72.60;;;;;;5033243;28;20057;-69
2021/04/10 02:53:41;;;;;;;0.85;0.80;;;6.40;72.60;;;;;;5033539;28;20069;-69
2021/04/10 02:56:08;;;;;;;0.80;0.80;;;6.40;72.60;;;;;;5033586;28;20021;-69
2021/04/10 02:58:34;;;;;;;1.20;1.10;;;6.30;72.70;;;;;;5033443;28;20021;-69
2021/04/10 03:01:00;;;;;;;0.50;0.50;;;6.30;72.80;;;;;;5033341;28;20100;-69
2021/04/10 03:03:27;;;;;;;0.82;0.70;;;6.30;72.80;;;;;;5033027;28;20104;-69
2021/04/10 03:05:54;;;;;;;0.77;0.77;;;6.30;72.80;;;;;;5032095;28;20462;-69
2021/04/10 03:08:22;;;;;;;1.00;0.90;;;6.30;72.80;;;;;;5033326;28;20328;-69
2021/04/10 03:10:51;;;;;;;1.33;0.80;;;6.20;72.90;;;;;;5033316;28;20021;-68
2021/04/10 03:13:18;;;;;;;0.73;0.63;;;6.20;73.00;;;;;;5033393;28;20033;-69
2021/04/10 03:15:45;;;;;;;0.75;0.65;;;6.20;73.10;;;;;;5033144;28;20237;-69
2021/04/10 03:18:12;;;;;;;0.98;0.85;;;6.20;73.10;;;;;;5032768;28;20498;-69
2021/04/10 03:20:38;;;;;;;0.93;0.80;;;6.20;73.20;;;;;;5033175;28;20104;-69
2021/04/10 03:23:04;;;;;;;0.88;0.77;;;6.10;73.30;;;;;;5033184;28;20093;-69
2021/04/10 03:25:30;;;;;;;0.60;0.60;;;6.10;73.30;;;;;;5032970;28;20021;-69
2021/04/10 03:27:55;;;;;;;1.30;1.00;;;6.10;73.30;;;;;;5033085;28;20025;-69
2021/04/10 03:30:22;;;;;;;0.63;0.63;;;6.10;73.30;;;;;;5033147;28;20080;-69
2021/04/10 03:32:49;;;;;;;0.95;0.90;;;6.10;73.40;;;;;;5032697;28;20056;-69
2021/04/10 03:35:15;;;;;;;0.80;0.60;;;6.10;73.40;;;;;;5033097;28;20025;-69
2021/04/10 03:37:41;;;;;;;0.90;0.63;;;6.10;73.40;;;;;;5032822;28;20034;-69
2021/04/10 03:40:07;;;;;;;0.80;0.80;;;6.10;73.40;;;;;;5033043;28;20020;-69
2021/04/10 03:42:44;;;;;;;0.60;0.60;;;6.20;73.50;;;;;;5032994;28;20056;-69
2021/04/10 03:45:12;;;;;;;0.98;0.70;;;6.20;73.40;;;;;;5032994;28;20029;-69
2021/04/10 03:47:37;;;;;;;0.65;0.55;;;6.20;74.00;;;;;;5034259;28;20045;-69
2021/04/10 03:50:08;;;;;;;0.75;0.70;;;6.20;73.90;;;;;;5036866;28;20033;-69
2021/04/10 03:52:33;;;;;;;1.02;0.68;;;6.20;73.30;;;;;;5036701;28;20042;-69
2021/04/10 03:55:00;;;;;;;0.50;0.50;;;6.20;73.30;;;;;;5036877;28;20116;-69
2021/04/10 03:57:27;;;;;;;1.02;0.98;;;6.20;73.40;;;;;;5036614;28;20115;-69
2021/04/10 03:59:52;;;;;;;0.77;0.77;;;6.20;73.50;;;;;;5036757;28;20018;-69
2021/04/10 04:02:18;;;;;;;1.25;1.10;;;6.20;73.40;;;;;;5036373;28;20025;-69
2021/04/10 04:04:44;;;;;;;1.35;1.15;;;6.20;73.40;;;;;;5036672;28;20061;-69
2021/04/10 04:07:09;;;;;;;0.80;0.80;;;6.20;73.50;;;;;;5036577;28;20022;-69
2021/04/10 04:09:36;;;;;;;0.50;0.50;;;6.20;73.60;;;;;;5036498;28;20389;-69
2021/04/10 04:12:02;;;;;;;0.98;0.98;;;6.20;73.60;;;;;;5036528;28;20034;-69
2021/04/10 04:14:28;;;;;;;0.80;0.80;;;6.20;73.70;;;;;;5036506;28;20524;-69
2021/04/10 04:16:53;;;;;;;0.77;0.70;;;6.20;73.60;;;;;;5036097;28;20034;-69
2021/04/10 04:19:19;;;;;;;0.88;0.88;;;6.20;73.60;;;;;;5036371;28;20018;-69
2021/04/10 04:21:45;;;;;;;0.60;0.60;;;6.30;73.60;;;;;;5036230;28;20072;-69
2021/04/10 04:24:10;;;;;;;1.13;0.90;;;6.20;73.50;;;;;;5036301;28;20466;-69
2021/04/10 04:26:36;;;;;;;1.38;1.02;;;6.20;73.70;;;;;;5036293;28;20087;-68
2021/04/10 04:29:02;;;;;;;0.95;0.90;;;6.30;73.80;;;;;;5036043;28;20075;-69
2021/04/10 04:31:28;;;;;;;0.98;0.93;;;6.20;73.70;;;;;;5035810;28;20041;-69
2021/04/10 04:33:53;;;;;;;0.68;0.68;;;6.30;73.80;;;;;;5035942;28;20020;-69
2021/04/10 04:36:19;;;;;;;1.33;1.20;;;6.30;73.70;;;;;;5036051;28;20028;-69
2021/04/10 04:38:44;;;;;;;2.40;1.13;;;6.30;73.60;;;;;;5035864;28;20025;-70
2021/04/10 04:41:09;;;;;;;0.85;0.75;;;6.30;73.70;;;;;;5035866;28;20051;-69
2021/04/10 04:43:35;;;;;;;1.17;0.90;;;6.30;73.70;;;;;;5035871;28;20024;-69
2021/04/10 04:46:00;;;;;;;0.85;0.85;;;6.30;73.70;;;;;;5035427;28;20385;-69
2021/04/10 04:48:27;;;;;;;2.95;1.05;;;6.30;73.70;;;;;;5035592;28;20013;-69
2021/04/10 04:50:52;;;;;;;1.08;1.02;;;6.30;73.70;;;;;;5035596;28;20052;-69
2021/04/10 04:53:18;;;;;;;1.52;1.17;;;6.30;73.80;;;;;;5035673;28;20045;-69
2021/04/10 04:55:44;;;;;;;0.70;0.70;;;6.30;73.80;;;;;;5035632;28;20115;-69
2021/04/10 04:58:09;;;;;;;0.95;0.90;;;6.30;73.80;;;;;;5035134;28;20025;-69
2021/04/10 05:00:35;;;;;;;2.53;1.17;;;6.30;73.70;;;;;;5034778;28;20113;-69
2021/04/10 05:03:00;;;;;;;1.48;1.00;;;6.30;73.80;;;;;;5035530;28;20389;-69
2021/04/10 05:05:26;;;;;;;1.23;0.98;;;6.30;73.90;;;;;;5035529;28;20025;-69
2021/04/10 05:07:52;;;;;;;0.70;0.70;;;6.30;73.80;;;;;;5035328;28;20504;-69
2021/04/10 05:10:17;;;;;;;1.75;0.85;;;6.40;73.90;;;;;;5035314;28;20043;-69
2021/04/10 05:12:43;;;;;;;0.70;0.70;;;6.40;73.80;;;;;;5035296;28;20041;-69
2021/04/10 05:15:09;;;;;;;1.60;0.98;;;6.40;73.90;;;;;;5050326;28;20036;-68
2021/04/10 05:17:34;;;;;;;0.82;0.82;;;6.40;73.70;;;;;;5035039;28;20073;-69
2021/04/10 05:20:00;;;;;;;0.77;0.73;;;6.50;73.70;;;;;;5035062;28;20022;-69
2021/04/10 05:22:25;;;;;;;1.02;0.98;;;6.50;73.60;;;;;;5035223;28;20021;-69
2021/04/10 05:24:51;;;;;;;0.90;0.90;;;6.50;73.50;;;;;;5035152;28;20104;-69
2021/04/10 05:27:17;;;;;;;1.10;1.10;;;6.50;73.50;;;;;;5034859;28;20026;-69
2021/04/10 05:29:42;;;;;;;1.65;1.00;;;6.50;73.60;;;;;;5034622;28;20100;-69
2021/04/10 05:32:08;;;;;;;0.95;0.95;;;6.50;73.70;;;;;;5034985;28;20451;-69
2021/04/10 05:34:36;;;;;;;0.77;0.75;;;6.40;73.80;;;;;;5034779;28;20529;-69
2021/04/10 05:37:02;;;;;;;1.45;1.13;;;6.40;73.90;;;;;;5034775;28;20474;-69
2021/04/10 05:39:27;;;;;;;3.00;1.13;;;6.40;74.00;;;;;;5034845;28;20022;-69
2021/04/10 05:41:53;;;;;;;1.90;1.00;;;6.40;74.10;;;;;;5034276;28;20049;-69
2021/04/10 05:44:19;;;;;;;0.95;0.90;;;6.40;74.20;;;;;;5034639;28;20500;-69
2021/04/10 05:46:44;;;;;;;0.90;0.80;;;6.40;74.10;;;;;;5033427;28;20029;-69
2021/04/10 05:49:10;;;;;;;1.13;0.90;;;6.50;73.90;;;;;;5034527;28;20029;-69
2021/04/10 05:51:35;;;;;;;0.88;0.80;;;6.50;73.80;;;;;;5034278;28;20041;-69
2021/04/10 05:54:01;;;;;;;0.93;0.88;;;6.60;73.70;;;;;;5034675;28;20513;-69
2021/04/10 05:56:26;;;;;;;0.77;0.77;;;6.70;73.50;;;;;;5034039;28;20029;-69
2021/04/10 05:58:52;;;;;;;1.15;0.90;;;6.70;73.50;;;;;;5034462;28;20021;-69
2021/04/10 06:01:18;;;;;;;1.45;0.90;;;6.70;73.60;;;;;;5034239;28;20156;-69
2021/04/10 06:03:43;;;;;;;1.00;0.80;;;6.70;73.50;;;;;;5034720;28;20489;-69
2021/04/10 06:06:11;;;;;;;1.50;0.80;;;6.80;73.50;;;;;;5034492;28;20030;-69
2021/04/10 06:08:36;;;;;;;1.20;1.00;;;6.80;73.60;;;;;;5034259;28;20021;-70
2021/04/10 06:11:02;;;;;;;1.27;0.77;;;6.80;73.50;;;;;;5032686;28;20167;-71
2021/04/10 06:13:27;;;;;;;1.10;1.00;;;6.80;73.30;;;;;;5033102;28;20068;-70
2021/04/10 06:15:53;;;;;;;0.80;0.80;;;6.80;73.40;;;;;;5034213;28;20775;-70
2021/04/10 06:18:18;;;;;;;2.10;1.10;;;6.90;73.50;;;;;;5034170;28;20034;-70
2021/04/10 06:20:44;;;;;;;1.35;0.85;;;6.90;73.40;;;;;;5034024;28;20110;-70
2021/04/10 06:23:09;;;;;;;2.13;1.40;;;7.10;73.30;;;;;;5033955;28;20053;-70
2021/04/10 06:25:35;;;;;;;2.05;1.40;;;7.10;73.20;;;;;;5033319;28;20429;-69
2021/04/10 06:28:02;;;;;;;2.03;1.55;;;7.10;73.20;;;;;;5033894;28;20026;-70
2021/04/10 06:30:27;;;;;;;2.78;1.15;;;7.10;73.30;;;;;;5032540;28;20029;-70
2021/04/10 06:32:53;;;;;;;1.58;1.20;;;7.10;73.30;;;;;;5033578;28;20418;-71
2021/04/10 06:35:18;;;;;;;0.80;0.80;;;7.10;73.40;;;;;;5033695;28;20022;-69
2021/04/10 06:37:44;;;;;;;0.85;0.55;;;7.20;73.30;;;;;;5032317;28;20504;-69
2021/04/10 06:40:10;;;;;;;0.77;0.75;;;7.30;72.90;;;;;;5033153;28;20496;-69
2021/04/10 06:42:36;;;;;;;0.80;0.80;;;7.40;72.80;;;;;;5033586;28;20034;-70
2021/04/10 06:45:02;;;;;;;1.75;1.10;;;7.40;72.70;;;;;;5033445;28;20028;-70
2021/04/10 06:47:31;;;;;;;2.42;1.13;;;7.40;72.90;;;;;;5033486;28;20032;-70
2021/04/10 06:49:57;;;;;;;1.73;1.15;;;7.30;73.10;;;;;;5032228;28;20390;-70
2021/04/10 06:52:24;;;;;;;1.45;1.17;;;7.30;73.20;;;;;;5033222;28;20048;-70
2021/04/10 06:55:03;;;;;;;1.85;1.00;;;7.30;73.20;;;;;;5032973;28;20025;-70
2021/04/10 06:57:35;;;;;;;1.10;0.95;;;7.40;73.20;;;;;;5033323;28;20478;-71
2021/04/10 07:00:06;;;;;;;1.05;0.95;;;7.50;73.00;;;;;;5033313;28;20032;-71
2021/04/10 07:02:32;;;;;;;1.40;1.02;;;7.60;72.90;;;;;;5033283;28;20485;-71
2021/04/10 07:04:58;;;;;;;0.77;0.77;;;7.70;72.70;;;;;;5031887;28;20018;-70
2021/04/10 07:07:25;;;;;;;2.40;1.13;;;7.70;72.50;;;;;;5033155;28;20022;-70
2021/04/10 07:09:52;;;;;;;0.95;0.75;;;7.80;72.40;;;;;;5032822;28;20026;-70
2021/04/10 07:12:17;;;;;;;0.68;0.68;;;7.80;72.50;;;;;;5033086;28;20478;-70
2021/04/10 07:14:43;;;;;;;0.90;0.90;;;7.80;72.50;;;;;;5033158;28;20031;-69
2021/04/10 07:17:10;;;;;;;0.90;0.85;;;7.90;72.40;;;;;;5033048;28;20026;-71
2021/04/10 07:19:37;;;;;;;1.10;0.80;;;7.90;72.30;;;;;;5033200;28;20352;-71
2021/04/10 07:22:04;;;;;;;1.02;1.02;;;8.00;72.30;;;;;;5032526;28;20017;-71
2021/04/10 07:24:38;;;;;;;1.05;0.90;;;8.00;72.30;;;;;;5032668;28;20021;-70
2021/04/10 07:27:04;;;;;;;0.68;0.68;;;8.00;72.10;;;;;;5033042;28;20041;-69
2021/04/10 07:29:42;;;;;;;1.27;0.90;;;8.00;72.20;;;;;;5032879;28;20135;-69
2021/04/10 07:32:43;;;;;;;1.83;0.98;;;8.00;72.20;;;;;;5032836;28;20055;-69
2021/04/10 07:35:14;;;;;;;1.88;1.30;;;8.00;72.20;;;;;;5011175;28;20482;-69
2021/04/10 07:37:51;;;;;;;1.27;0.75;;;8.00;72.40;;;;;;5011099;28;20046;-69
2021/04/10 07:40:23;;;;;;;0.65;0.65;;;8.00;72.40;;;;;;5011012;28;20034;-69
2021/04/10 07:42:49;;;;;;;1.13;0.63;;;8.10;72.20;;;;;;5010853;28;20192;-69
2021/04/10 07:45:32;;;;;;;0.60;0.60;;;8.20;72.00;;;;;;5011261;28;20489;-68
2021/04/10 07:48:14;;;;;;;1.10;0.90;;;8.20;72.00;;;;;;5011104;28;20437;-68
2021/04/10 07:50:40;;;;;;;1.48;0.80;;;8.30;72.00;;;;;;5010905;28;20046;-67
2021/04/10 07:53:22;;;;;;;1.98;1.30;;;8.30;71.80;;;;;;5010386;28;20054;-66
2021/04/10 07:55:49;;;;;;;0.98;0.73;;;8.40;71.70;;;;;;5010945;28;20053;-67
2021/04/10 07:58:31;;;;;;;1.98;0.75;;;8.60;71.50;;;;;;5010974;28;20033;-67
2021/04/10 08:01:02;;;;;;;0.73;0.70;;;8.90;71.10;;;;;;5011018;28;20036;-67
2021/04/10 08:03:37;;;;;;;2.03;0.77;;;9.00;70.80;;;;;;5010898;28;20532;-68
2021/04/10 08:06:05;;;;;;;1.35;1.20;;;9.10;70.60;;;;;;5011032;28;20057;-68
2021/04/10 08:08:57;;;;;;;1.55;1.15;;;9.20;70.50;;;;;;5016055;28;20100;-68
2021/04/10 08:11:33;;;;;;;0.63;0.63;;;9.10;70.80;;;;;;5032640;28;20020;-68
2021/04/10 08:14:02;;;;;;;1.90;1.00;;;9.10;71.00;;;;;;5032540;28;20033;-68
2021/04/10 08:16:28;;;;;;;0.60;0.60;;;9.20;70.90;;;;;;5032581;28;20084;-67
2021/04/10 08:18:56;;;;;;;0.82;0.82;;;9.30;70.70;;;;;;5032733;28;20030;-69
2021/04/10 08:21:28;;;;;;;0.65;0.65;;;9.30;70.70;;;;;;5032136;28;20389;-68
2021/04/10 08:23:55;;;;;;;0.88;0.88;;;9.40;70.70;;;;;;5032551;28;20052;-68
2021/04/10 08:26:21;;;;;;;1.15;0.90;;;9.50;70.40;;;;;;5032421;28;20067;-68
2021/04/10 08:28:47;;;;;;;0.60;0.60;;;9.50;70.40;;;;;;5032585;28;20029;-68
2021/04/10 08:31:12;;;;;;;0.95;0.88;;;9.70;70.30;;;;;;5032539;28;20470;-68
2021/04/10 08:33:38;;;;;;;0.65;0.65;;;9.80;70.00;;;;;;5032794;28;20133;-68
2021/04/10 08:36:07;;;;;;;1.45;1.35;;;10.00;69.90;;;;;;5035582;28;20112;-68
2021/04/10 08:38:36;;;;;;;1.17;0.68;;;10.10;69.60;;;;;;5036142;28;20104;-68
2021/04/10 08:41:05;;;;;;;0.85;0.75;;;10.20;69.50;;;;;;5035879;28;20021;-68
2021/04/10 08:43:33;;;;;;;1.73;1.00;;;10.30;69.40;;;;;;5035959;28;20379;-68
2021/04/10 08:45:59;;;;;;;2.05;1.00;;;10.40;69.10;;;;;;5035886;28;20056;-69
2021/04/10 08:48:28;;;;;;;0.70;0.57;;;10.40;69.10;;;;;;5035815;28;20075;-68
2021/04/10 08:50:57;;;;;;;0.90;0.90;;;10.50;69.20;;;;;;5035294;28;20075;-68
2021/04/10 08:53:28;;;;;;;0.63;0.63;;;10.50;69.20;;;;;;5034192;28;20124;-68
2021/04/10 08:55:55;;;;;;;1.92;0.60;;;10.60;69.20;;;;;;5036038;28;20022;-68
2021/04/10 08:58:23;;;;;;;1.23;0.77;;;10.70;68.90;;;;;;5035593;28;20021;-68
2021/04/10 09:00:57;;;;;;;0.63;0.63;;;10.80;68.80;;;;;;5035682;28;20033;-68
2021/04/10 09:03:44;;;;;;;1.17;1.02;;;10.90;68.50;;;;;;5035625;28;20029;-68
2021/04/10 09:06:13;;;;;;;1.83;0.85;;;11.00;68.50;;;;;;5034948;28;20025;-68
2021/04/10 09:08:39;;;;;;;1.35;0.98;;;11.10;68.40;;;;;;5035395;28;20022;-68
2021/04/10 09:11:05;;;;;;;0.90;0.77;;;11.30;68.10;;;;;;5034177;28;20021;-68
2021/04/10 09:13:42;;;;;;;1.77;1.20;;;11.40;67.90;;;;;;5035345;28;20041;-68
2021/04/10 09:16:23;;;;;;;2.13;0.80;;;11.50;67.90;;;;;;5035207;28;20021;-68
2021/04/10 09:19:01;;;;;;;1.98;1.20;;;11.60;67.80;;;;;;5035289;28;20486;-68
2021/04/10 09:21:35;;;;;;;0.57;0.57;;;11.60;67.50;;;;;;5034800;28;20028;-68
2021/04/10 09:24:16;;;;;;;1.45;0.80;;;11.60;67.70;;;;;;5035182;28;20049;-68
2021/04/10 09:26:52;;;;;;;0.60;0.60;;;11.70;67.60;;;;;;5035066;28;20037;-68
2021/04/10 09:29:18;;;;;;;0.80;0.77;;;11.70;67.40;;;;;;5035014;28;20026;-68
2021/04/10 09:31:46;;;;;;;1.20;0.73;;;11.60;67.80;;;;;;5035042;28;20501;-68
2021/04/10 09:34:43;;;;;;;0.70;0.70;;;11.60;68.00;;;;;;5034729;28;20033;-68
2021/04/10 09:37:21;;;;;;;1.15;0.98;;;11.50;68.00;;;;;;5034874;28;20053;-68
2021/04/10 09:39:51;;;;;;;1.08;0.90;;;11.40;68.00;;;;;;5034989;28;20025;-68
2021/04/10 09:45:30;;;;;;;0.80;0.80;;;11.30;68.20;;;;;;5034483;28;20087;-68
2021/04/10 09:47:56;;;;;;;1.83;0.95;;;11.10;68.40;;;;;;5033830;28;20036;-68
2021/04/10 09:50:32;;;;;;;2.55;1.17;;;11.10;68.50;;;;;;5034129;28;20021;-68
2021/04/10 09:52:58;;;;;;;1.27;0.68;;;10.90;68.50;;;;;;5034367;28;20048;-68
2021/04/10 09:55:26;;;;;;;1.15;0.80;;;10.80;68.70;;;;;;5034297;28;20030;-68
2021/04/10 09:57:58;;;;;;;0.88;0.73;;;10.80;68.90;;;;;;5034576;28;20065;-68
2021/04/10 10:00:32;;;;;;;1.27;0.88;;;10.80;68.70;;;;;;5034295;28;20021;-68
2021/04/10 10:02:59;;;;;;;1.25;0.90;;;10.90;68.50;;;;;;5034069;28;20022;-68
2021/04/10 10:05:30;;;;;;;0.70;0.70;;;10.90;68.50;;;;;;5034444;28;20024;-68
2021/04/10 10:08:07;;;;;;;1.20;0.77;;;10.80;68.30;;;;;;5034413;28;20044;-68
2021/04/10 10:10:35;;;;;;;2.47;1.67;;;10.70;68.50;;;;;;5034291;28;20430;-68
2021/04/10 10:13:06;;;;;;;1.20;1.10;;;10.70;68.50;;;;;;5034259;28;20093;-68
2021/04/10 10:15:32;;;;;;;2.75;1.08;;;10.30;68.70;;;;;;5034111;28;20022;-68
2021/04/10 10:17:58;;;;;;;0.77;0.75;;;10.20;69.30;;;;;;5033549;28;20112;-68
2021/04/10 10:20:25;;;;;;;2.42;1.75;;;10.20;69.10;;;;;;5034071;28;20087;-68
2021/04/10 10:22:50;;;;;;;1.63;0.93;;;10.20;69.00;;;;;;5034211;28;20029;-68
2021/04/10 10:25:17;;;;;;;1.63;1.52;;;10.30;68.90;;;;;;5033945;28;20025;-68
2021/04/10 10:27:45;;;;;;;1.05;1.00;;;10.30;68.70;;;;;;5033959;28;20076;-68
2021/04/10 10:30:17;;;;;;;0.52;0.52;;;10.40;68.50;;;;;;5034077;28;20025;-68
2021/04/10 10:32:44;;;;;;;1.10;1.00;;;10.40;68.50;;;;;;5033513;28;20450;-68
2021/04/10 10:35:11;;;;;;;0.77;0.77;;;10.50;68.30;;;;;;5033897;28;20469;-68
2021/04/10 10:37:36;;;;;;;0.80;0.80;;;10.50;68.20;;;;;;5033813;28;20021;-68
2021/04/10 10:40:03;;;;;;;1.30;0.95;;;10.50;68.40;;;;;;5033810;28;20048;-68
2021/04/10 10:42:29;;;;;;;1.85;1.15;;;10.40;68.60;;;;;;5033625;28;20057;-68
2021/04/10 10:44:54;;;;;;;1.00;0.95;;;10.20;68.90;;;;;;5033708;28;20049;-68
2021/04/10 10:47:23;;;;;;;1.65;1.20;;;10.10;69.20;;;;;;5033287;28;20429;-68
2021/04/10 10:49:50;;;;;;;1.30;1.17;;;10.00;69.50;;;;;;5033662;28;20024;-68
2021/04/10 10:52:19;;;;;;;0.93;0.90;;;9.80;69.90;;;;;;5033330;28;20409;-68
2021/04/10 10:54:49;;;;;;;2.40;1.53;;;9.70;70.10;;;;;;5033506;28;20433;-68
2021/04/10 10:57:15;;;;;;;;;;;9.70;70.20;;;;;;5033523;28;20272;-68
2021/04/10 10:59:41;;;;;;;1.05;0.98;;;9.70;70.10;;;;;;5033622;28;19905;-68
2021/04/10 11:02:17;;;;;;;0.57;0.57;;;9.70;70.00;;;;;;5031815;28;20024;-68
2021/04/10 11:04:44;;;;;;;1.33;1.20;;;9.90;69.80;;;;;;5033135;28;20394;-69
2021/04/10 11:07:10;;;;;;;0.80;0.80;;;9.90;69.60;;;;;;5033456;28;20026;-69
2021/04/10 11:09:38;;;;;;;5.57;1.25;;;9.90;69.80;;;;;;5033250;28;20026;-69
2021/04/10 11:12:10;;;;;;;1.50;1.20;;;9.80;70.00;;;;;;5033210;28;20038;-69
2021/04/10 11:14:41;;;;;;;2.35;0.80;;;9.80;70.10;;;;;;5033220;28;20017;-69
2021/04/10 11:17:07;;;;;;;1.08;0.98;;;9.80;70.60;;;;;;5032912;28;20026;-69
2021/04/10 11:19:35;;;;;;;1.05;0.95;;;9.90;70.00;;;;;;5033059;28;20083;-69
2021/04/10 11:22:04;;;;;;;1.23;1.13;;;10.00;69.90;;;;;;5033449;28;20071;-69
2021/04/10 11:24:39;;;;;;;1.73;1.27;;;10.10;69.80;;;;;;5033362;28;20025;-69
2021/04/10 11:27:22;;;;;;;1.58;1.30;;;10.10;69.60;;;;;;5033127;28;20034;-69
2021/04/10 11:29:58;;;;;;;0.90;0.90;;;10.10;69.70;;;;;;5033042;28;20428;-69
2021/04/10 11:32:41;;;;;;;1.42;1.15;;;10.20;69.80;;;;;;5033027;28;20034;-69
2021/04/10 11:35:17;;;;;;;1.65;0.93;;;10.20;69.70;;;;;;5033153;28;20074;-69
2021/04/10 11:37:48;;;;;;;2.17;1.48;;;10.10;70.00;;;;;;5033001;28;20045;-69
2021/04/10 11:40:36;;;;;;;1.60;1.50;;;10.00;70.20;;;;;;5032993;28;20052;-69
2021/04/10 11:43:04;;;;;;;1.95;1.50;;;9.90;70.60;;;;;;5032889;28;20096;-69
2021/04/10 11:45:42;;;;;;;2.00;1.50;;;9.80;70.80;;;;;;5031300;28;20373;-69
2021/04/10 11:48:15;;;;;;;2.10;1.95;;;9.60;71.00;;;;;;5032791;28;20401;-69
2021/04/10 11:50:54;;;;;;;1.73;1.58;;;9.40;71.40;;;;;;5032590;28;20021;-69
2021/04/10 11:53:34;;;;;;;3.00;2.28;;;9.20;71.90;;;;;;5032904;28;20390;-69
2021/04/10 11:56:00;;;;;;;3.17;2.22;;;9.10;72.10;;;;;;5032936;28;20032;-69
2021/04/10 11:58:35;;;;;;;4.25;2.55;;;8.90;72.50;;;;;;5032889;28;20025;-69
2021/04/10 12:01:09;;;;;;;2.45;1.92;;;8.80;72.50;;;;;;5032204;28;20021;-69
2021/04/10 12:03:56;;;;;;;2.45;2.25;;;8.80;72.50;;;;;;5032848;28;20026;-69
2021/04/10 12:06:39;;;;;;;4.63;2.67;;;8.90;72.30;;;;;;5032770;28;20485;-69
2021/04/10 12:09:09;;;;;;;3.88;2.80;;;8.90;72.10;;;;;;5035318;28;20037;-69
2021/04/10 12:11:36;;;;;;;2.50;2.10;;;8.90;72.20;;;;;;5036561;28;20560;-69
2021/04/10 12:14:13;;;;;;;2.63;2.22;;;8.80;72.30;;;;;;5036192;28;20029;-69
2021/04/10 12:16:39;;;;;;;3.10;2.13;;;9.00;72.10;;;;;;5036421;28;20474;-69
2021/04/10 12:19:06;;;;;;;4.25;2.83;;;9.00;72.00;;;;;;5036578;28;20029;-69
2021/04/10 12:21:33;;;;;;;3.90;2.72;;;9.00;72.10;;;;;;5036445;28;20075;-69
2021/04/10 12:23:59;;;;;;;3.85;2.55;;;8.90;72.20;;;;;;5036185;28;20041;-69
2021/04/10 12:26:25;;;;;;;3.55;2.92;;;8.80;72.70;;;;;;5036416;28;20393;-69
2021/04/10 12:28:51;;;;;;;4.45;3.35;;;8.70;72.90;;;;;;5035945;28;20228;-69
2021/04/10 12:31:17;;;;;;;3.83;2.85;;;8.60;73.00;;;;;;5036260;28;20050;-69
2021/04/10 12:33:44;;;;;;;3.60;2.55;;;8.70;73.00;;;;;;5036257;28;20041;-69
2021/04/10 12:36:09;;;;;;;3.17;2.85;;;8.70;73.00;;;;;;5036112;28;20442;-69
2021/04/10 12:38:35;;;;;;;4.10;2.38;;;8.80;72.70;;;;;;5051556;28;20500;-69
2021/04/10 12:41:02;;;;;;;3.08;2.45;;;8.90;72.50;;;;;;5036015;28;20421;-69
2021/04/10 12:43:28;;;;;;;4.85;2.78;;;8.90;72.50;;;;;;5035617;28;20025;-69
2021/04/10 12:45:53;;;;;;;5.30;3.70;;;8.90;72.50;;;;;;5035983;28;20029;-69
2021/04/10 12:48:19;;;;;;;3.15;2.55;;;8.80;73.00;;;;;;5035943;28;20022;-69
2021/04/10 12:50:44;;;;;;;4.97;3.22;;;8.70;73.10;;;;;;5035813;28;20481;-69
2021/04/10 12:53:10;;;;;;;4.30;3.00;;;8.60;73.40;;;;;;5035779;28;20037;-69
2021/04/10 12:55:35;;;;;;;3.05;2.08;;;8.50;73.60;;;;;;5035867;28;20021;-69
2021/04/10 12:58:01;;;;;;;4.25;2.55;;;8.50;73.80;;;;;;5035288;28;20110;-69
2021/04/10 13:00:26;;;;;;;2.90;2.42;;;8.50;73.70;;;;;;5035740;28;20021;-69
2021/04/10 13:02:52;;;;;;;3.40;2.55;;;8.40;73.80;;;;;;5035631;28;20529;-69
2021/04/10 13:05:18;;;;;;;4.40;2.60;;;8.40;73.80;;;;;;5035789;28;20018;-69
2021/04/10 13:07:44;;;;;;;3.45;2.63;;;8.20;74.00;;;;;;5035499;28;20021;-69